createdAt,value
2018-03-25T00:02:23.718Z,11.90
2018-03-25T00:04:51.967Z,11.93
2018-03-25T00:07:19.486Z,11.47
2018-03-25T00:09:46.958Z,12.33
2018-03-25T00:12:14.453Z,12.37
2018-03-25T00:14:41.930Z,11.83
2018-03-25T00:17:10.190Z,12.67
2018-03-25T00:19:37.670Z,12.70
2018-03-25T00:22:05.147Z,12.17
2018-03-25T00:24:32.630Z,12.97
2018-03-25T00:27:00.108Z,12.93
2018-03-25T00:29:27.811Z,12.60
2018-03-25T00:31:55.290Z,12.13
2018-03-25T00:34:22.829Z,12.07
2018-03-25T00:36:50.315Z,11.90
2018-03-25T00:39:17.795Z,11.43
2018-03-25T00:41:46.055Z,13.43
2018-03-25T00:44:13.534Z,12.83
2018-03-25T00:46:41.766Z,12.63
2018-03-25T00:49:09.254Z,12.23
2018-03-25T00:51:36.730Z,12.60
2018-03-25T00:54:04.989Z,13.67
2018-03-25T00:56:32.458Z,12.73
2018-03-25T00:59:00.694Z,13.57
2018-03-25T01:01:28.217Z,12.20
2018-03-25T01:03:55.695Z,12.73
2018-03-25T01:06:23.231Z,11.60
2018-03-25T01:08:50.788Z,12.03
2018-03-25T01:11:18.277Z,11.97
2018-03-25T01:13:45.771Z,12.03
2018-03-25T01:16:14.011Z,12.67
2018-03-25T01:18:41.525Z,12.20
2018-03-25T01:21:08.995Z,11.83
2018-03-25T01:23:36.464Z,11.90
2018-03-25T01:26:03.958Z,12.37
2018-03-25T01:28:32.198Z,13.17
2018-03-25T01:30:59.702Z,12.20
2018-03-25T01:33:28.006Z,11.70
2018-03-25T01:35:55.564Z,11.67
2018-03-25T01:38:23.034Z,12.03
2018-03-25T01:40:50.518Z,12.03
2018-03-25T01:43:18.032Z,12.00
2018-03-25T01:45:45.500Z,11.97
2018-03-25T01:48:12.990Z,11.80
2018-03-25T01:50:40.470Z,11.40
2018-03-25T01:55:59.885Z,12.27
2018-03-25T01:58:27.385Z,12.40
2018-03-25T02:00:54.855Z,11.53
2018-03-25T02:03:22.330Z,11.33
2018-03-25T02:05:49.828Z,11.87
2018-03-25T02:08:17.322Z,11.97
2018-03-25T02:10:44.820Z,12.40
2018-03-25T02:13:12.291Z,12.03
2018-03-25T02:15:39.791Z,11.63
2018-03-25T02:18:07.276Z,11.23
2018-03-25T02:20:34.859Z,11.83
2018-03-25T02:23:02.363Z,11.73
2018-03-25T02:25:29.830Z,11.43
2018-03-25T02:27:58.133Z,12.13
2018-03-25T02:30:26.334Z,10.47
2018-03-25T02:32:53.823Z,11.90
2018-03-25T02:35:21.299Z,11.13
2018-03-25T02:37:49.541Z,11.17
2018-03-25T02:40:18.539Z,10.03
2018-03-25T02:42:46.011Z,10.13
2018-03-25T02:45:14.267Z,9.93
2018-03-25T02:47:41.776Z,10.57
2018-03-25T02:50:09.271Z,10.00
2018-03-25T02:52:36.740Z,10.93
2018-03-25T02:55:04.210Z,10.67
2018-03-25T02:57:32.469Z,10.30
2018-03-25T02:59:59.943Z,11.20
2018-03-25T03:02:28.221Z,10.03
2018-03-25T03:04:56.496Z,10.90
2018-03-25T03:07:23.980Z,10.73
2018-03-25T03:09:51.455Z,9.10
2018-03-25T03:12:18.926Z,10.90
2018-03-25T03:14:46.411Z,11.77
2018-03-25T03:17:14.646Z,10.17
2018-03-25T03:19:42.138Z,10.57
2018-03-25T03:22:10.147Z,10.20
2018-03-25T03:24:37.644Z,10.17
2018-03-25T03:27:05.114Z,10.43
2018-03-25T03:29:32.590Z,10.90
2018-03-25T03:32:00.846Z,10.90
2018-03-25T03:34:29.098Z,10.10
2018-03-25T03:36:56.588Z,10.87
2018-03-25T03:39:25.229Z,9.77
2018-03-25T03:41:53.079Z,11.40
2018-03-25T03:44:20.550Z,10.70
2018-03-25T03:46:48.027Z,11.67
2018-03-25T03:49:15.510Z,10.67
2018-03-25T03:51:43.743Z,10.80
2018-03-25T03:54:11.266Z,10.77
2018-03-25T03:56:38.825Z,10.87
2018-03-25T03:59:06.311Z,11.37
2018-03-25T04:01:33.839Z,12.13
2018-03-25T04:04:01.674Z,10.50
2018-03-25T04:06:29.910Z,11.93
2018-03-25T04:08:57.389Z,10.70
2018-03-25T04:11:25.650Z,11.33
2018-03-25T04:13:54.628Z,10.67
2018-03-25T04:16:22.153Z,10.67
2018-03-25T04:18:49.618Z,11.23
2018-03-25T04:21:17.115Z,11.60
2018-03-25T04:23:44.582Z,10.87
2018-03-25T04:26:12.076Z,11.07
2018-03-25T04:28:39.563Z,10.90
2018-03-25T04:31:07.042Z,11.73
2018-03-25T04:33:36.038Z,11.53
2018-03-25T04:36:04.274Z,11.50
2018-03-25T04:38:31.786Z,11.23
2018-03-25T04:41:00.019Z,11.70
2018-03-25T04:43:27.507Z,10.37
2018-03-25T04:45:55.759Z,11.67
2018-03-25T04:48:23.230Z,11.80
2018-03-25T04:50:50.714Z,10.97
2018-03-25T04:53:18.194Z,11.37
2018-03-25T04:55:45.677Z,10.90
2018-03-25T04:58:13.146Z,12.10
2018-03-25T05:00:40.614Z,10.93
2018-03-25T05:03:09.491Z,11.80
2018-03-25T05:05:37.818Z,10.90
2018-03-25T05:08:05.298Z,10.97
2018-03-25T05:10:32.770Z,11.10
2018-03-25T05:13:00.266Z,11.70
2018-03-25T05:15:28.498Z,11.30
2018-03-25T05:17:55.974Z,11.03
2018-03-25T05:20:23.454Z,10.63
2018-03-25T05:22:50.922Z,11.03
2018-03-25T05:25:18.409Z,11.50
2018-03-25T05:27:45.882Z,11.57
2018-03-25T05:30:13.372Z,11.60
2018-03-25T05:32:40.856Z,10.77
2018-03-25T05:35:08.322Z,11.60
2018-03-25T05:37:35.811Z,11.43
2018-03-25T05:40:03.284Z,11.13
2018-03-25T05:42:31.555Z,11.47
2018-03-25T05:44:59.799Z,12.80
2018-03-25T05:47:27.299Z,14.20
2018-03-25T05:49:55.601Z,13.13
2018-03-25T05:52:23.067Z,14.77
2018-03-25T05:54:50.550Z,12.40
2018-03-25T05:57:18.035Z,13.23
2018-03-25T05:59:45.534Z,13.30
2018-03-25T06:02:13.007Z,13.40
2018-03-25T06:04:40.537Z,12.63
2018-03-25T06:07:08.041Z,12.63
2018-03-25T06:09:35.526Z,14.30
2018-03-25T06:12:04.003Z,13.10
2018-03-25T06:14:32.242Z,12.37
2018-03-25T06:16:59.731Z,12.40
2018-03-25T06:19:28.036Z,12.13
2018-03-25T06:21:55.529Z,13.17
2018-03-25T06:24:23.026Z,12.30
2018-03-25T06:26:51.263Z,12.30
2018-03-25T06:29:18.882Z,13.10
2018-03-25T06:31:46.355Z,12.10
2018-03-25T06:34:13.858Z,12.10
2018-03-25T06:36:41.334Z,11.83
2018-03-25T06:39:09.590Z,11.63
2018-03-25T06:41:37.088Z,11.67
2018-03-25T06:44:04.553Z,11.43
2018-03-25T06:46:32.054Z,10.67
2018-03-25T06:48:59.522Z,10.57
2018-03-25T06:51:27.774Z,10.47
2018-03-25T06:53:55.250Z,9.27
2018-03-25T06:56:23.506Z,11.13
2018-03-25T06:58:50.970Z,9.93
2018-03-25T07:01:19.219Z,10.10
2018-03-25T07:03:46.705Z,10.70
2018-03-25T07:06:14.175Z,10.40
2018-03-25T07:08:42.438Z,10.17
2018-03-25T07:11:10.679Z,10.73
2018-03-25T07:13:38.154Z,10.70
2018-03-25T07:16:06.414Z,10.17
2018-03-25T07:18:33.902Z,10.13
2018-03-25T07:21:02.163Z,10.43
2018-03-25T07:23:29.644Z,11.10
2018-03-25T07:25:57.138Z,10.77
2018-03-25T07:28:24.617Z,11.40
2018-03-25T07:30:52.143Z,10.17
2018-03-25T07:33:19.619Z,11.10
2018-03-25T07:35:47.112Z,10.63
2018-03-25T07:38:15.362Z,10.33
2018-03-25T07:40:42.825Z,9.93
2018-03-25T07:43:10.309Z,9.97
2018-03-25T07:45:38.550Z,10.63
2018-03-25T07:48:06.047Z,11.27
2018-03-25T07:50:33.534Z,9.60
2018-03-25T07:53:01.011Z,10.90
2018-03-25T07:55:28.502Z,10.67
2018-03-25T07:57:55.974Z,10.37
2018-03-25T08:00:23.475Z,10.60
2018-03-25T08:02:50.946Z,9.70
2018-03-25T08:05:18.439Z,10.00
2018-03-25T08:07:46.683Z,10.47
2018-03-25T08:10:14.938Z,8.93
2018-03-25T08:12:42.418Z,10.37
2018-03-25T08:15:09.898Z,9.70
2018-03-25T08:17:37.378Z,10.73
2018-03-25T08:20:04.871Z,10.17
2018-03-25T08:22:32.388Z,10.33
2018-03-25T08:24:59.858Z,9.10
2018-03-25T08:27:27.354Z,10.30
2018-03-25T08:29:54.826Z,9.97
2018-03-25T08:32:23.354Z,9.50
2018-03-25T08:34:50.822Z,9.63
2018-03-25T08:37:18.300Z,10.27
2018-03-25T08:39:45.787Z,10.10
2018-03-25T08:42:13.264Z,10.83
2018-03-25T08:44:40.755Z,9.83
2018-03-25T08:47:08.223Z,11.33
2018-03-25T08:49:35.718Z,11.63
2018-03-25T08:52:03.211Z,11.93
2018-03-25T08:54:30.710Z,11.10
2018-03-25T08:56:58.953Z,11.40
2018-03-25T08:59:26.430Z,10.83
2018-03-25T09:01:53.918Z,10.03
2018-03-25T09:04:21.435Z,10.40
2018-03-25T09:06:48.945Z,10.63
2018-03-25T09:09:16.422Z,10.30
2018-03-25T09:11:43.922Z,11.00
2018-03-25T09:14:12.234Z,11.23
2018-03-25T09:16:39.730Z,10.47
2018-03-25T09:19:07.970Z,10.57
2018-03-25T09:21:35.442Z,11.67
2018-03-25T09:24:03.709Z,11.30
2018-03-25T09:26:31.180Z,11.90
2018-03-25T09:28:59.447Z,11.00
2018-03-25T09:31:27.699Z,12.13
2018-03-25T09:33:55.216Z,11.57
2018-03-25T09:36:22.762Z,12.07
2018-03-25T09:38:50.351Z,10.70
2018-03-25T09:41:17.874Z,12.30
2018-03-25T09:43:45.398Z,12.10
2018-03-25T09:46:12.899Z,12.03
2018-03-25T09:48:41.253Z,11.67
2018-03-25T09:51:08.826Z,12.10
2018-03-25T09:53:36.376Z,12.20
2018-03-25T09:56:04.087Z,12.30
2018-03-25T09:58:31.696Z,11.50
2018-03-25T10:01:04.980Z,11.77
2018-03-25T10:03:32.533Z,12.27
2018-03-25T10:06:00.821Z,12.63
2018-03-25T10:08:28.346Z,12.77
2018-03-25T10:10:55.843Z,13.03
2018-03-25T10:13:24.137Z,12.73
2018-03-25T10:15:52.448Z,12.97
2018-03-25T10:18:19.989Z,12.20
2018-03-25T10:20:48.308Z,12.70
2018-03-25T10:23:16.023Z,13.37
2018-03-25T10:25:44.493Z,13.00
2018-03-25T10:28:12.749Z,13.07
2018-03-25T10:30:40.311Z,12.80
2018-03-25T10:33:07.889Z,11.33
2018-03-25T10:35:35.407Z,12.47
2018-03-25T10:38:03.744Z,14.10
2018-03-25T10:40:31.265Z,13.73
2018-03-25T10:42:59.560Z,12.63
2018-03-25T10:45:27.856Z,13.00
2018-03-25T10:47:56.201Z,12.90
2018-03-25T10:50:23.820Z,12.57
2018-03-25T10:52:51.350Z,13.10
2018-03-25T10:55:18.934Z,14.20
2018-03-25T10:57:47.256Z,13.77
2018-03-25T11:00:14.799Z,14.37
2018-03-25T11:02:42.308Z,13.50
2018-03-25T11:05:09.832Z,12.43
2018-03-25T11:07:37.475Z,13.27
2018-03-25T11:10:05.034Z,13.13
2018-03-25T11:12:32.592Z,13.40
2018-03-25T11:15:00.240Z,14.43
2018-03-25T11:17:27.758Z,13.00
2018-03-25T11:19:55.304Z,13.23
2018-03-25T11:22:22.835Z,12.93
2018-03-25T11:24:51.108Z,13.63
2018-03-25T11:27:19.418Z,15.20
2018-03-25T11:29:46.930Z,14.67
2018-03-25T11:32:14.473Z,14.10
2018-03-25T11:34:41.966Z,14.90
2018-03-25T11:37:09.448Z,14.77
2018-03-25T11:39:36.938Z,15.87
2018-03-25T11:42:04.440Z,16.23
2018-03-25T11:44:31.915Z,14.23
2018-03-25T11:46:59.452Z,15.50
2018-03-25T11:49:26.924Z,15.27
2018-03-25T11:51:54.418Z,15.00
2018-03-25T11:54:21.919Z,16.27
2018-03-25T11:56:50.166Z,16.07
2018-03-25T11:59:17.662Z,16.50
2018-03-25T12:01:45.139Z,16.73
2018-03-25T12:04:12.636Z,16.13
2018-03-25T12:06:40.114Z,15.37
2018-03-25T12:09:08.707Z,16.77
2018-03-25T12:11:36.190Z,15.67
2018-03-25T12:14:03.671Z,16.67
2018-03-25T12:16:31.162Z,15.53
2018-03-25T12:18:59.430Z,15.33
2018-03-25T12:21:26.922Z,15.90
2018-03-25T12:23:55.162Z,16.43
2018-03-25T12:26:22.659Z,15.57
2018-03-25T12:28:50.910Z,16.43
2018-03-25T12:31:19.160Z,16.37
2018-03-25T12:33:46.670Z,14.87
2018-03-25T12:36:14.190Z,14.43
2018-03-25T12:38:41.693Z,15.87
2018-03-25T12:41:09.979Z,17.07
2018-03-25T12:43:37.470Z,16.30
2018-03-25T12:46:04.938Z,15.63
2018-03-25T12:48:32.414Z,15.20
2018-03-25T12:51:00.666Z,16.23
2018-03-25T12:53:28.138Z,17.97
2018-03-25T12:55:56.399Z,16.63
2018-03-25T12:58:23.901Z,14.33
2018-03-25T13:00:51.703Z,17.10
2018-03-25T13:03:19.182Z,14.97
2018-03-25T13:05:46.658Z,17.50
2018-03-25T13:08:14.910Z,16.10
2018-03-25T13:10:42.396Z,14.37
2018-03-25T13:13:09.893Z,15.43
2018-03-25T13:15:37.391Z,14.77
2018-03-25T13:18:05.654Z,15.77
2018-03-25T13:20:33.122Z,15.83
2018-03-25T13:23:01.362Z,13.93
2018-03-25T13:25:28.854Z,13.87
2018-03-25T13:27:57.091Z,14.77
2018-03-25T13:30:24.582Z,13.80
2018-03-25T13:32:52.829Z,14.73
2018-03-25T13:35:20.326Z,14.50
2018-03-25T13:37:47.807Z,14.13
2018-03-25T13:40:15.286Z,15.07
2018-03-25T13:42:42.774Z,14.77
2018-03-25T13:45:11.007Z,14.80
2018-03-25T13:47:38.543Z,14.07
2018-03-25T13:50:06.022Z,14.87
2018-03-25T13:52:33.514Z,14.90
2018-03-25T13:55:01.755Z,15.00
2018-03-25T13:57:29.239Z,15.87
2018-03-25T13:59:56.743Z,15.43
2018-03-25T14:02:24.214Z,14.83
2018-03-25T14:04:51.702Z,13.60
2018-03-25T14:07:19.172Z,15.93
2018-03-25T14:09:47.430Z,15.57
2018-03-25T14:12:14.907Z,14.50
2018-03-25T14:14:43.147Z,15.70
2018-03-25T14:17:10.630Z,14.90
2018-03-25T14:19:38.102Z,14.93
2018-03-25T14:22:06.359Z,15.23
2018-03-25T14:24:34.059Z,15.73
2018-03-25T14:27:01.554Z,15.70
2018-03-25T14:29:29.060Z,16.00
2018-03-25T14:31:56.542Z,14.97
2018-03-25T14:34:24.088Z,17.23
2018-03-25T14:36:51.579Z,16.57
2018-03-25T14:39:19.051Z,15.57
2018-03-25T14:41:47.290Z,15.00
2018-03-25T14:44:14.782Z,16.17
2018-03-25T14:46:42.254Z,16.00
2018-03-25T14:49:10.510Z,16.37
2018-03-25T14:51:39.556Z,16.50
2018-03-25T14:54:07.058Z,15.30
2018-03-25T14:56:34.587Z,15.33
2018-03-25T14:59:02.128Z,16.50
2018-03-25T15:01:29.615Z,15.13
2018-03-25T15:03:57.089Z,16.13
2018-03-25T15:06:24.598Z,16.27
2018-03-25T15:08:52.093Z,15.60
2018-03-25T15:11:19.880Z,15.23
2018-03-25T15:13:48.126Z,16.97
2018-03-25T15:16:15.598Z,16.20
2018-03-25T15:18:43.206Z,16.90
2018-03-25T15:21:10.671Z,15.73
2018-03-25T15:23:38.175Z,15.70
2018-03-25T15:26:05.642Z,17.23
2018-03-25T15:28:34.243Z,15.67
2018-03-25T15:31:01.721Z,15.67
2018-03-25T15:33:29.198Z,15.67
2018-03-25T15:35:56.929Z,16.50
2018-03-25T15:38:24.488Z,16.67
2018-03-25T15:40:51.978Z,16.23
2018-03-25T15:43:19.451Z,15.77
2018-03-25T15:45:46.922Z,16.00
2018-03-25T15:48:14.422Z,16.47
2018-03-25T15:50:41.902Z,16.37
2018-03-25T15:53:09.947Z,16.10
2018-03-25T15:55:37.430Z,15.83
2018-03-25T15:58:04.928Z,18.03
2018-03-25T16:00:33.167Z,17.17
2018-03-25T16:03:00.658Z,16.57
2018-03-25T16:05:28.915Z,17.63
2018-03-25T16:07:56.382Z,16.70
2018-03-25T16:10:24.967Z,17.73
2018-03-25T16:12:53.207Z,16.63
2018-03-25T16:15:20.678Z,17.40
2018-03-25T16:17:48.170Z,21.07
2018-03-25T16:20:16.407Z,17.60
2018-03-25T16:22:43.898Z,17.67
2018-03-25T16:25:11.367Z,17.37
2018-03-25T16:27:38.844Z,17.00
2018-03-25T16:30:06.346Z,17.17
2018-03-25T16:32:34.615Z,16.97
2018-03-25T16:35:02.106Z,16.57
2018-03-25T16:37:29.599Z,18.60
2018-03-25T16:39:57.074Z,18.17
2018-03-25T16:42:24.563Z,18.20
2018-03-25T16:44:52.034Z,17.93
2018-03-25T16:47:19.534Z,17.37
2018-03-25T16:49:47.014Z,16.53
2018-03-25T16:52:14.519Z,17.00
2018-03-25T16:54:42.002Z,17.43
2018-03-25T16:57:09.791Z,17.17
2018-03-25T16:59:37.288Z,17.57
2018-03-25T17:02:04.773Z,15.97
2018-03-25T17:04:32.270Z,17.47
2018-03-25T17:07:00.512Z,18.13
2018-03-25T17:09:28.033Z,17.57
2018-03-25T17:11:55.507Z,17.57
2018-03-25T17:14:22.978Z,17.27
2018-03-25T17:16:50.462Z,17.93
2018-03-25T17:19:17.934Z,17.97
2018-03-25T17:21:46.190Z,19.27
2018-03-25T17:24:14.443Z,19.33
2018-03-25T17:26:42.269Z,19.67
2018-03-25T17:29:09.746Z,18.87
2018-03-25T17:31:37.219Z,20.20
2018-03-25T17:34:04.714Z,21.23
2018-03-25T17:36:32.959Z,21.80
2018-03-25T17:39:00.486Z,21.00
2018-03-25T17:41:27.959Z,21.43
2018-03-25T17:43:55.459Z,23.30
2018-03-25T17:46:23.698Z,23.57
2018-03-25T17:48:51.166Z,22.90
2018-03-25T17:51:18.650Z,19.23
2018-03-25T17:53:46.226Z,20.27
2018-03-25T17:56:13.718Z,19.83
2018-03-25T17:58:41.206Z,20.73
2018-03-25T18:01:09.458Z,19.60
2018-03-25T18:03:38.438Z,19.63
2018-03-25T18:06:05.910Z,20.60
2018-03-25T18:08:33.398Z,19.50
2018-03-25T18:11:01.638Z,18.40
2018-03-25T18:13:29.148Z,20.37
2018-03-25T18:15:56.627Z,16.63
2018-03-25T18:18:24.639Z,20.27
2018-03-25T18:20:56.292Z,19.27
2018-03-25T18:23:20.354Z,19.70
2018-03-25T18:25:49.400Z,19.53
2018-03-25T18:28:17.614Z,19.40
2018-03-25T18:30:45.116Z,19.00
2018-03-25T18:33:12.602Z,19.97
2018-03-25T18:35:40.414Z,20.67
2018-03-25T18:38:08.666Z,19.30
2018-03-25T18:40:36.138Z,19.90
2018-03-25T18:43:04.450Z,19.43
2018-03-25T18:45:31.919Z,20.27
2018-03-25T18:47:59.447Z,21.07
2018-03-25T18:50:27.694Z,21.17
2018-03-25T18:52:55.292Z,21.10
2018-03-25T18:55:22.805Z,19.63
2018-03-25T18:57:50.244Z,19.43
2018-03-25T19:00:17.760Z,21.00
2018-03-25T19:02:45.330Z,19.37
2018-03-25T19:05:12.819Z,19.80
2018-03-25T19:07:40.294Z,18.67
2018-03-25T19:10:08.549Z,16.57
2018-03-25T19:12:36.027Z,17.47
2018-03-25T19:15:03.533Z,19.13
2018-03-25T19:17:31.026Z,19.50
2018-03-25T19:19:58.495Z,19.07
2018-03-25T19:22:25.983Z,18.93
2018-03-25T19:24:53.462Z,19.20
2018-03-25T19:27:20.956Z,19.87
2018-03-25T19:29:48.426Z,18.70
2018-03-25T19:32:17.506Z,18.23
2018-03-25T19:34:44.935Z,17.23
2018-03-25T19:37:12.406Z,19.23
2018-03-25T19:39:39.893Z,19.33
2018-03-25T19:42:08.134Z,18.70
2018-03-25T19:44:35.626Z,18.77
2018-03-25T19:47:03.100Z,18.97
2018-03-25T19:49:30.625Z,17.50
2018-03-25T19:51:58.878Z,19.17
2018-03-25T19:54:26.413Z,18.37
2018-03-25T19:56:53.905Z,19.20
2018-03-25T19:59:21.378Z,19.07
2018-03-25T20:01:49.636Z,17.97
2018-03-25T20:04:17.106Z,18.90
2018-03-25T20:06:44.594Z,19.87
2018-03-25T20:09:12.063Z,18.13
2018-03-25T20:11:39.550Z,18.37
2018-03-25T20:14:07.023Z,18.57
2018-03-25T20:16:34.492Z,17.57
2018-03-25T20:19:01.982Z,17.67
2018-03-25T20:21:29.447Z,17.83
2018-03-25T20:23:56.934Z,17.43
2018-03-25T20:26:24.415Z,17.83
2018-03-25T20:28:51.897Z,17.63
2018-03-25T20:31:19.386Z,16.70
2018-03-25T20:33:46.854Z,16.93
2018-03-25T20:36:14.360Z,17.27
2018-03-25T20:38:41.840Z,17.17
2018-03-25T20:41:09.322Z,17.17
2018-03-25T20:43:36.810Z,16.97
2018-03-25T20:46:05.039Z,17.93
2018-03-25T20:48:32.555Z,17.47
2018-03-25T20:51:00.783Z,17.77
2018-03-25T20:53:28.254Z,17.70
2018-03-25T20:55:55.734Z,16.90
2018-03-25T20:58:23.966Z,18.20
2018-03-25T21:00:51.758Z,17.67
2018-03-25T21:03:19.255Z,16.83
2018-03-25T21:05:46.723Z,18.00
2018-03-25T21:08:14.208Z,17.47
2018-03-25T21:10:41.670Z,16.93
2018-03-25T21:13:09.942Z,17.03
2018-03-25T21:15:37.410Z,17.90
2018-03-25T21:18:04.879Z,17.00
2018-03-25T21:20:32.376Z,18.33
2018-03-25T21:22:59.838Z,18.23
2018-03-25T21:25:27.332Z,18.23
2018-03-25T21:27:54.815Z,17.80
2018-03-25T21:30:23.046Z,18.73
2018-03-25T21:32:50.538Z,19.10
2018-03-25T21:35:18.770Z,19.60
2018-03-25T21:37:46.558Z,17.63
2018-03-25T21:40:14.026Z,18.50
2018-03-25T21:42:42.270Z,19.10
2018-03-25T21:45:09.761Z,17.60
2018-03-25T21:47:37.997Z,18.90
2018-03-25T21:50:05.494Z,19.03
2018-03-25T21:52:33.735Z,19.37
2018-03-25T21:55:01.206Z,19.20
2018-03-25T21:57:29.454Z,18.87
2018-03-25T21:59:56.939Z,19.17
2018-03-25T22:02:24.435Z,20.00
2018-03-25T22:04:51.903Z,20.10
2018-03-25T22:07:19.379Z,20.10
2018-03-25T22:09:46.876Z,21.67
2018-03-25T22:12:15.110Z,19.57
2018-03-25T22:14:42.619Z,20.87
2018-03-25T22:17:10.106Z,21.20
2018-03-25T22:19:37.580Z,20.00
2018-03-25T22:22:05.063Z,20.83
2018-03-25T22:24:33.377Z,19.27
2018-03-25T22:27:00.874Z,22.13
2018-03-25T22:29:28.366Z,21.60
2018-03-25T22:31:56.623Z,19.93
2018-03-25T22:34:24.879Z,20.57
2018-03-25T22:36:52.350Z,20.10
2018-03-25T22:39:19.839Z,21.10
2018-03-25T22:41:47.309Z,20.63
2018-03-25T22:44:14.795Z,21.57
2018-03-25T22:46:42.260Z,20.57
2018-03-25T22:49:09.747Z,20.20
2018-03-25T22:51:37.983Z,21.03
2018-03-25T22:54:05.505Z,20.67
2018-03-25T22:56:32.987Z,22.80
2018-03-25T22:59:00.456Z,21.23
2018-03-25T23:01:29.466Z,21.53
2018-03-25T23:03:56.931Z,21.83
2018-03-25T23:06:25.182Z,21.77
2018-03-25T23:08:52.650Z,21.80
2018-03-25T23:11:20.122Z,21.73
2018-03-25T23:13:48.374Z,21.60
2018-03-25T23:16:15.838Z,21.73
2018-03-25T23:18:43.322Z,22.07
2018-03-25T23:21:10.792Z,21.17
2018-03-25T23:23:38.277Z,22.53
2018-03-25T23:26:05.744Z,21.20
2018-03-25T23:28:33.211Z,21.13
2018-03-25T23:31:00.716Z,21.97
2018-03-25T23:33:28.184Z,21.77
2018-03-25T23:35:55.730Z,21.20
2018-03-25T23:38:23.193Z,21.03
2018-03-25T23:40:50.744Z,20.73
2018-03-25T23:43:18.208Z,22.50
2018-03-25T23:45:45.674Z,20.70
2018-03-25T23:48:13.162Z,21.57
2018-03-25T23:50:40.667Z,22.37
2018-03-25T23:53:08.151Z,22.87
2018-03-25T23:55:35.681Z,21.33
2018-03-25T23:58:03.149Z,23.63
